Time;durP1;ratioP1;P1;durP2;ratioP2;P2;SDS_P1;SDS_P2;PMS_P1;PMS_P2;Temp;Humidity;BMP_temperature;BMP_pressure;BME280_temperature;BME280_humidity;BME280_pressure;Samples;Min_cycle;Max_cycle;Signal;HPM_P1;HPM_P2
2021/06/21 00:02:09;;;;;;;4.87;4.37;;;;;;;21.43;61.00;97537.81;1670722;84;28225;-88
2021/06/21 00:04:35;;;;;;;5.35;4.65;;;;;;;21.40;61.12;97534.20;1664545;84;28113;-89
2021/06/21 00:07:02;;;;;;;6.15;4.72;;;;;;;21.40;61.26;97528.88;1655109;84;28102;-88
2021/06/21 00:13:10;;;;;;;6.12;4.45;;;;;;;21.38;61.46;97528.27;1669885;85;28048;-89
2021/06/21 00:15:38;;;;;;;7.55;4.58;;;;;;;21.25;61.64;97525.84;1669764;84;28086;-88
2021/06/21 00:18:07;;;;;;;5.25;4.65;;;;;;;21.22;61.72;97524.89;1674480;84;28135;-88
2021/06/21 00:20:33;;;;;;;7.00;5.00;;;;;;;21.21;61.85;97531.25;1664788;84;28134;-89
2021/06/21 00:22:59;;;;;;;5.33;4.42;;;;;;;21.17;61.94;97523.33;1672972;84;28138;-88
2021/06/21 00:25:27;;;;;;;6.37;5.12;;;;;;;21.13;62.02;97522.05;1661211;84;28097;-88
2021/06/21 00:27:53;;;;;;;5.92;4.40;;;;;;;21.10;62.12;97521.63;1665419;84;27994;-88
2021/06/21 00:30:21;;;;;;;6.12;4.83;;;;;;;21.06;62.21;97511.87;1668712;84;28124;-89
2021/06/21 00:32:48;;;;;;;6.87;4.50;;;;;;;21.07;62.32;97510.85;1674025;84;28092;-88
2021/06/21 00:35:15;;;;;;;5.60;4.22;;;;;;;21.07;62.42;97510.85;1644321;85;28136;-89
2021/06/21 00:37:42;;;;;;;6.65;4.65;;;;;;;21.06;62.53;97509.70;1642398;87;28119;-88
2021/06/21 00:40:10;;;;;;;6.40;4.55;;;;;;;21.05;62.61;97511.58;1642455;86;28089;-88
2021/06/21 00:42:39;;;;;;;6.20;4.58;;;;;;;21.01;62.69;97510.30;1649560;85;28178;-86
2021/06/21 00:45:13;;;;;;;8.45;4.85;;;;;;;20.95;62.79;97512.41;1638047;85;28145;-88
2021/06/21 00:51:22;;;;;;;8.18;5.92;;;;;;;20.68;63.15;97510.58;1630981;86;28089;-88
2021/06/21 00:53:50;;;;;;;7.20;5.45;;;;;;;20.53;63.48;97503.20;1630498;86;28066;-88
2021/06/21 00:56:17;;;;;;;6.50;5.58;;;;;;;20.50;63.68;97506.27;1625374;85;28076;-89
2021/06/21 00:58:44;;;;;;;8.85;5.45;;;;;;;20.54;63.83;97507.02;1656376;84;28068;-88
2021/06/21 01:01:11;;;;;;;6.50;5.28;;;;;;;20.63;63.95;97509.01;1653031;85;28175;-88
2021/06/21 01:03:37;;;;;;;7.10;5.25;;;;;;;20.66;64.08;97504.14;1655582;85;28090;-88
2021/06/21 01:06:07;;;;;;;5.25;4.50;;;;;;;20.67;64.19;97496.48;1624575;85;28144;-88
2021/06/21 01:08:33;;;;;;;6.80;5.00;;;;;;;20.68;64.26;97499.94;1656863;85;28145;-88
2021/06/21 01:11:09;;;;;;;7.33;4.80;;;;;;;20.67;64.35;97489.84;1623630;85;28157;-89
2021/06/21 01:13:45;;;;;;;4.75;4.00;;;;;;;20.64;64.40;97488.88;1664266;85;28134;-88
2021/06/21 01:16:27;;;;;;;5.42;4.90;;;;;;;20.67;64.50;97487.69;1653873;85;28007;-88
2021/06/21 01:18:56;;;;;;;4.58;4.12;;;;;;;20.64;64.55;97491.55;1651912;85;28011;-88
2021/06/21 01:21:56;;;;;;;6.08;5.20;;;;;;;20.70;64.67;97493.94;1653721;85;28086;-88
2021/06/21 01:24:38;;;;;;;5.05;4.45;;;;;;;20.79;64.74;97488.77;1659233;85;28054;-88
2021/06/21 01:27:29;;;;;;;5.70;4.47;;;;;;;20.79;64.77;97485.61;1654163;85;28173;-88
2021/06/21 01:30:08;;;;;;;5.78;4.75;;;;;;;20.78;64.82;97484.50;1651070;85;28140;-88
2021/06/21 01:37:09;;;;;;;7.58;4.80;;;;;;;20.68;64.89;97469.36;1651234;84;28167;-88
2021/06/21 01:39:38;;;;;;;6.08;4.78;;;;;;;20.66;65.04;97466.09;1665853;84;28198;-89
2021/06/21 01:42:11;;;;;;;4.80;4.33;;;;;;;20.69;65.14;97462.53;1657239;84;28011;-88
2021/06/21 01:44:40;;;;;;;5.40;4.90;;;;;;;20.72;65.21;97462.16;1658267;84;28116;-88
2021/06/21 01:47:15;;;;;;;6.83;4.05;;;;;;;20.81;65.29;97464.15;1653394;84;28151;-88
2021/06/21 01:49:48;;;;;;;7.87;4.80;;;;;;;20.79;65.29;97462.18;1663266;84;28084;-88
2021/06/21 01:52:21;;;;;;;6.83;5.08;;;;;;;20.70;65.33;97459.38;1651966;84;28092;-89
2021/06/21 01:54:56;;;;;;;8.70;4.90;;;;;;;20.61;65.38;97461.37;1670069;84;28063;-89
2021/06/21 01:57:33;;;;;;;5.60;4.75;;;;;;;20.63;65.47;97461.97;1665960;84;28014;-89
2021/06/21 02:00:08;;;;;;;6.95;5.10;;;;;;;20.63;65.55;97457.16;1657510;83;28067;-89
2021/06/21 02:02:37;;;;;;;6.47;5.08;;;;;;;20.65;65.63;97461.28;1658458;84;28199;-89
2021/06/21 02:05:06;;;;;;;7.70;5.60;;;;;;;20.67;65.65;97459.27;1658910;84;28036;-89
2021/06/21 02:07:34;;;;;;;5.37;4.53;;;;;;;20.68;65.72;97463.55;1656324;84;28153;-89
2021/06/21 02:10:05;;;;;;;6.55;4.72;;;;;;;20.69;65.78;97459.05;1679392;83;28383;-89
2021/06/21 02:12:33;;;;;;;7.15;5.40;;;;;;;20.63;65.85;97458.49;1666825;83;28089;-89
2021/06/21 02:15:00;;;;;;;5.55;4.95;;;;;;;20.62;65.92;97460.86;1655866;84;28101;-89
2021/06/21 02:17:29;;;;;;;5.17;4.67;;;;;;;20.59;65.98;97462.56;1632546;86;28098;-88
2021/06/21 02:19:57;;;;;;;7.33;4.53;;;;;;;20.48;66.02;97459.93;1663749;84;28079;-88
2021/06/21 02:22:30;;;;;;;5.70;4.75;;;;;;;20.39;66.11;97457.94;1661743;85;28080;-88
2021/06/21 02:25:00;;;;;;;6.00;5.12;;;;;;;20.32;66.17;97457.55;1669446;83;28085;-88
2021/06/21 02:27:27;;;;;;;6.67;4.95;;;;;;;20.35;66.30;97450.52;1663244;83;28187;-88
2021/06/21 02:29:54;;;;;;;;;;;;;;;20.39;66.40;97448.63;1671428;85;28100;-88
2021/06/21 02:32:21;;;;;;;;;;;;;;;20.48;66.49;97442.65;1673982;84;22655;-88
2021/06/21 02:34:47;;;;;;;;;;;;;;;20.52;66.56;97438.58;1666245;83;26015;-88
2021/06/21 02:37:13;;;;;;;;;;;;;;;20.57;66.63;97435.34;1655711;84;24445;-88
2021/06/21 02:39:39;;;;;;;;;;;;;;;20.60;66.69;97437.12;1662733;84;20289;-87
2021/06/21 02:42:05;;;;;;;;;;;;;;;20.68;66.74;97424.16;1634618;86;25374;-88
2021/06/21 02:44:32;;;;;;;;;;;;;;;20.75;66.78;97425.03;1653369;85;22046;-88
2021/06/21 02:46:58;;;;;;;;;;;;;;;20.79;66.81;97421.78;1625031;86;26186;-88
2021/06/21 02:49:24;;;;;;;;;;;;;;;20.88;66.80;97421.13;1654550;85;24371;-88
2021/06/21 02:51:52;;;;;;;;;;;;;;;20.98;66.79;97428.23;1623630;87;20379;-87
2021/06/21 02:54:39;;;;;;;;;;;;;;;21.07;66.76;97428.38;1627726;86;24607;-87
2021/06/21 02:57:10;;;;;;;;;;;;;;;21.17;66.73;97430.19;1624571;86;22084;-87
2021/06/21 02:59:37;;;;;;;;;;;;;;;21.29;66.66;97432.59;1622591;87;26085;-88
2021/06/21 03:02:11;;;;;;;4.83;4.22;;;;;;;21.38;66.58;97427.12;1617902;88;25286;-87
2021/06/21 03:04:39;;;;;;;4.95;4.10;;;;;;;21.43;66.53;97428.67;1622124;87;28099;-87
2021/06/21 03:07:11;;;;;;;7.80;4.70;;;;;;;21.50;66.43;97433.48;1629457;87;28106;-87
2021/06/21 03:09:40;;;;;;;5.83;3.60;;;;;;;21.56;66.35;97434.02;1649634;85;28082;-87
2021/06/21 03:12:08;;;;;;;4.35;3.95;;;;;;;21.61;66.28;97435.05;1623845;85;28093;-87
2021/06/21 03:14:38;;;;;;;4.78;3.85;;;;;;;21.67;66.20;97436.09;1635448;85;28087;-87
2021/06/21 03:17:06;;;;;;;6.65;3.90;;;;;;;21.74;66.13;97432.94;1649533;85;28133;-87
2021/06/21 03:19:33;;;;;;;5.17;3.55;;;;;;;21.80;66.04;97436.14;1647950;86;28164;-87
2021/06/21 03:22:06;;;;;;;6.42;4.28;;;;;;;21.85;65.96;97436.85;1648050;85;28133;-88
2021/06/21 03:24:33;;;;;;;4.87;3.50;;;;;;;21.91;65.88;97439.53;1649827;86;28106;-87
2021/06/21 03:26:59;;;;;;;6.20;4.12;;;;;;;21.97;65.83;97445.42;1652621;85;28094;-87
2021/06/21 03:29:27;;;;;;;4.40;3.77;;;;;;;22.05;65.77;97447.05;1648712;85;28133;-87
2021/06/21 03:32:02;;;;;;;4.87;4.37;;;;;;;22.11;65.71;97444.91;1649071;86;28105;-87
2021/06/21 03:34:28;;;;;;;;;;;;;;;22.21;65.64;97448.49;1656363;84;28103;-88
2021/06/21 03:36:54;;;;;;;;;;;;;;;22.27;65.58;97448.50;1662214;85;26126;-88
2021/06/21 03:39:21;;;;;;;;;;;;;;;22.37;65.51;97452.91;1686645;84;24545;-88
2021/06/21 03:41:53;;;;;;;;;;;;;;;22.48;65.46;97446.95;1683465;84;20642;-88
2021/06/21 03:44:19;;;;;;;;;;;;;;;22.63;65.37;97446.76;1651815;85;24854;-88
2021/06/21 03:46:45;;;;;;;;;;;;;;;22.82;65.31;97456.59;1660237;85;22001;-88
2021/06/21 03:49:11;;;;;;;;;;;;;;;23.04;65.25;97457.67;1676235;84;26067;-88
2021/06/21 03:51:37;;;;;;;;;;;;;;;23.18;65.17;97453.95;1686620;84;24378;-88
2021/06/21 03:54:03;;;;;;;;;;;;;;;23.26;65.05;97452.37;1687924;83;20150;-87
2021/06/21 03:56:31;;;;;;;;;;;;;;;23.43;65.00;97454.87;1652967;85;25517;-88
2021/06/21 03:58:59;;;;;;;;;;;;;;;23.64;64.92;97463.94;1678614;84;22106;-89
2021/06/21 04:01:25;;;;;;;;;;;;;;;23.86;64.79;97460.43;1675279;85;26037;-88
2021/06/21 04:03:55;;;;;;;;;;;;;;;23.96;64.57;97461.29;1677284;84;24434;-89
2021/06/21 04:06:26;;;;;;;;;;;;;;;23.98;64.42;97457.38;1660193;85;56546;-89
2021/06/21 04:08:52;;;;;;;;;;;;;;;24.08;64.32;97459.57;1675960;84;24756;-89
2021/06/21 04:11:19;;;;;;;5.40;4.20;;;;;;;24.15;64.14;97460.35;1668205;84;21973;-89
2021/06/21 04:13:45;;;;;;;5.60;4.08;;;;;;;24.21;64.01;97459.52;1669357;85;28166;-88
2021/06/21 04:16:11;;;;;;;6.75;4.10;;;;;;;24.32;63.94;97461.50;1667787;85;28118;-88
2021/06/21 04:18:45;;;;;;;4.33;3.90;;;;;;;24.48;63.85;97459.61;1668735;85;28079;-89
2021/06/21 04:21:18;;;;;;;6.67;4.25;;;;;;;24.64;63.76;97460.91;1667307;85;28170;-89
2021/06/21 04:23:44;;;;;;;5.15;4.08;;;;;;;24.76;63.57;97458.34;1667035;85;28087;-88
2021/06/21 04:26:11;;;;;;;4.62;4.08;;;;;;;24.78;63.37;97451.70;1668247;85;28082;-89
2021/06/21 04:28:37;;;;;;;5.40;4.30;;;;;;;24.96;63.25;97457.64;1668046;85;28083;-88
2021/06/21 04:31:04;;;;;;;7.67;4.30;;;;;;;25.12;63.11;97459.73;1667846;84;28012;-89
2021/06/21 04:33:31;;;;;;;4.67;4.28;;;;;;;25.23;62.96;97458.98;1667296;85;28075;-89
2021/06/21 04:35:57;;;;;;;5.62;4.05;;;;;;;25.28;62.75;97459.66;1644648;85;28113;-89
2021/06/21 04:38:29;;;;;;;7.33;4.83;;;;;;;25.31;62.54;97464.58;1648399;86;28064;-88
2021/06/21 04:41:02;;;;;;;4.70;4.30;;;;;;;25.29;62.32;97470.15;1650398;86;28102;-88
2021/06/21 04:43:29;;;;;;;4.33;3.90;;;;;;;25.22;62.05;97476.61;1647506;86;28078;-88
2021/06/21 04:45:55;;;;;;;6.50;4.42;;;;;;;25.09;61.89;97482.95;1647375;85;28106;-88
2021/06/21 04:48:22;;;;;;;6.72;4.28;;;;;;;24.94;61.79;97483.80;1648226;86;28075;-88
2021/06/21 04:50:48;;;;;;;4.90;4.15;;;;;;;24.81;61.83;97474.55;1623474;87;28111;-89
2021/06/21 04:53:15;;;;;;;7.95;4.20;;;;;;;24.71;61.93;97470.22;1633865;87;28157;-88
2021/06/21 04:55:41;;;;;;;8.15;4.55;;;;;;;24.66;62.06;97474.08;1631092;87;28029;-88
2021/06/21 04:58:08;;;;;;;7.60;4.37;;;;;;;24.64;62.14;97470.28;1648533;85;28063;-88
2021/06/21 05:00:40;;;;;;;6.72;5.00;;;;;;;24.69;62.22;97484.33;1635999;86;28021;-88
2021/06/21 05:03:12;;;;;;;5.50;4.35;;;;;;;24.83;62.30;97483.16;1648693;86;28077;-88
2021/06/21 05:05:39;;;;;;;5.47;4.25;;;;;;;24.93;62.31;97491.53;1629650;87;28101;-88
2021/06/21 05:08:08;;;;;;;8.50;4.97;;;;;;;24.97;62.26;97486.05;1621311;86;28152;-88
2021/06/21 05:10:37;;;;;;;6.42;4.78;;;;;;;24.88;62.22;97484.16;1646124;85;28113;-88
2021/06/21 05:13:02;;;;;;;6.72;4.70;;;;;;;24.78;62.13;97484.34;1641397;85;28000;-88
2021/06/21 05:15:31;;;;;;;5.00;4.50;;;;;;;24.71;62.08;97487.62;1644244;85;28109;-87
2021/06/21 05:18:03;;;;;;;5.30;4.70;;;;;;;24.68;62.15;97484.02;1648716;85;28078;-88
2021/06/21 05:20:29;;;;;;;;;;;;;;;24.64;62.20;97486.84;1647611;85;28086;-88
2021/06/21 05:23:01;;;;;;;5.42;4.25;;;;;;;24.58;62.21;97481.85;1654994;85;24831;-88
2021/06/21 05:25:32;;;;;;;5.53;4.83;;;;;;;24.49;62.09;97481.29;1645402;85;28099;-88
2021/06/21 05:27:58;;;;;;;7.72;4.53;;;;;;;24.45;62.07;97472.59;1602713;88;28091;-88
2021/06/21 05:30:29;;;;;;;10.35;4.78;;;;;;;24.43;62.14;97479.52;1646036;85;28014;-88
2021/06/21 05:32:55;;;;;;;7.85;4.85;;;;;;;24.43;62.24;97476.84;1654586;85;28119;-88
2021/06/21 05:35:22;;;;;;;5.33;4.22;;;;;;;24.35;62.29;97482.95;1660042;83;28121;-88
2021/06/21 05:37:55;;;;;;;5.53;4.95;;;;;;;24.28;62.40;97483.52;1691028;83;28081;-88
2021/06/21 05:40:21;;;;;;;5.53;5.00;;;;;;;24.23;62.51;97479.34;1684665;83;28097;-87
2021/06/21 05:42:48;;;;;;;5.28;4.78;;;;;;;24.24;62.67;97492.50;1683197;83;28101;-87
2021/06/21 05:45:16;;;;;;;5.22;4.72;;;;;;;24.26;62.76;97486.43;1692345;81;28146;-88
2021/06/21 05:47:44;;;;;;;5.90;4.90;;;;;;;24.28;62.85;97491.02;1682785;83;28078;-88
2021/06/21 05:50:12;;;;;;;6.83;4.55;;;;;;;24.31;62.91;97495.13;1646008;85;28027;-88
2021/06/21 05:52:44;;;;;;;6.10;4.67;;;;;;;24.35;63.00;97488.30;1670745;85;28083;-87
2021/06/21 05:55:13;;;;;;;5.95;5.00;;;;;;;24.41;63.09;97486.10;1669795;84;28124;-87
2021/06/21 05:57:46;;;;;;;5.40;4.80;;;;;;;24.44;63.14;97482.98;1671392;84;28079;-87
2021/06/21 06:00:14;;;;;;;6.60;4.42;;;;;;;24.49;63.17;97479.95;1681099;83;28054;-87
2021/06/21 06:02:40;;;;;;;5.90;4.58;;;;;;;24.50;63.19;97478.09;1682873;83;28098;-87
2021/06/21 06:05:07;;;;;;;;;;;;;;;24.50;63.17;97479.44;1687795;84;28098;-88
2021/06/21 06:07:36;;;;;;;;;;;;;;;24.48;63.13;97477.52;1697574;84;24454;-88
2021/06/21 06:10:03;;;;;;;;;;;;;;;24.47;63.11;97479.38;1687343;84;20170;-87
2021/06/21 06:12:29;;;;;;;6.95;5.33;;;;;;;24.49;63.12;97477.83;1654797;85;24852;-88
2021/06/21 06:14:55;;;;;;;5.60;5.08;;;;;;;24.50;63.21;97474.91;1647814;85;28125;-87
2021/06/21 06:17:22;;;;;;;6.62;5.28;;;;;;;24.57;63.28;97482.88;1643186;85;28137;-88
2021/06/21 06:19:51;;;;;;;8.70;5.62;;;;;;;24.63;63.34;97481.19;1680143;83;28084;-88
2021/06/21 06:22:18;;;;;;;7.17;5.10;;;;;;;24.71;63.42;97477.70;1659293;84;28115;-88
2021/06/21 06:24:44;;;;;;;6.35;5.15;;;;;;;24.79;63.52;97476.10;1668600;84;28157;-88
2021/06/21 06:27:19;;;;;;;7.10;5.78;;;;;;;24.81;63.57;97474.03;1668022;84;28024;-88
2021/06/21 06:29:46;;;;;;;10.38;5.40;;;;;;;24.83;63.63;97471.11;1667186;85;28197;-87
2021/06/21 06:32:12;;;;;;;5.87;5.28;;;;;;;24.89;63.69;97480.45;1671265;85;28060;-88
2021/06/21 06:34:40;;;;;;;6.85;5.35;;;;;;;24.97;63.80;97474.83;1668674;84;28085;-87
2021/06/21 06:37:07;;;;;;;9.05;5.62;;;;;;;25.03;63.81;97475.80;1666101;84;28172;-87
2021/06/21 06:39:34;;;;;;;8.40;4.78;;;;;;;25.12;63.87;97479.81;1668176;84;28136;-87
2021/06/21 06:42:00;;;;;;;7.37;5.45;;;;;;;25.19;63.93;97480.57;1669563;84;28046;-88
2021/06/21 06:44:27;;;;;;;7.70;5.67;;;;;;;25.23;63.92;97471.56;1668057;84;28113;-87
2021/06/21 06:46:54;;;;;;;7.70;5.70;;;;;;;25.26;63.90;97467.91;1667772;84;28084;-87
2021/06/21 06:49:29;;;;;;;9.43;5.53;;;;;;;25.30;63.90;97474.47;1668176;84;28170;-88
2021/06/21 06:52:01;;;;;;;8.23;5.40;;;;;;;25.39;63.92;97466.42;1669567;84;28150;-88
2021/06/21 06:54:33;;;;;;;8.30;5.65;;;;;;;25.49;63.91;97465.06;1669447;84;28080;-87
2021/06/21 06:57:03;;;;;;;5.92;4.97;;;;;;;25.54;63.92;97464.69;1667199;84;28214;-87
2021/06/21 06:59:36;;;;;;;7.55;5.15;;;;;;;25.58;63.88;97462.42;1668784;84;28087;-87
2021/06/21 07:02:06;;;;;;;7.67;6.10;;;;;;;25.62;63.86;97460.92;1669511;84;28057;-87
2021/06/21 07:04:32;;;;;;;5.87;5.35;;;;;;;25.67;63.77;97471.26;1667615;84;28060;-87
2021/06/21 07:06:59;;;;;;;6.12;5.37;;;;;;;25.68;63.68;97468.88;1665324;84;28114;-87
2021/06/21 07:09:28;;;;;;;7.60;5.40;;;;;;;25.74;63.64;97475.20;1667484;84;28126;-87
2021/06/21 07:11:54;;;;;;;10.43;5.37;;;;;;;25.81;63.59;97478.59;1667895;84;28080;-88
2021/06/21 07:14:27;;;;;;;7.47;4.85;;;;;;;25.89;63.55;97479.63;1662405;84;28109;-88
2021/06/21 07:16:54;;;;;;;8.45;6.20;;;;;;;25.99;63.47;97484.43;1670824;85;28174;-88
2021/06/21 07:19:21;;;;;;;7.17;5.65;;;;;;;26.07;63.39;97484.95;1665176;84;28141;-87
2021/06/21 07:21:48;;;;;;;8.30;5.55;;;;;;;26.20;63.35;97490.61;1671657;84;28087;-88
2021/06/21 07:24:20;;;;;;;7.87;5.45;;;;;;;26.30;63.30;97488.22;1670891;84;28110;-87
2021/06/21 07:26:48;;;;;;;7.67;6.58;;;;;;;26.44;63.22;97488.33;1669660;84;28094;-88
2021/06/21 07:29:16;;;;;;;8.23;5.50;;;;;;;26.54;63.11;97487.23;1669512;84;28005;-87
2021/06/21 07:31:43;;;;;;;9.38;6.05;;;;;;;26.60;62.93;97484.14;1670692;84;28068;-88
2021/06/21 07:34:16;;;;;;;7.70;5.30;;;;;;;26.63;62.68;97480.98;1653019;85;28083;-88
2021/06/21 07:36:42;;;;;;;9.43;6.40;;;;;;;26.72;62.61;97483.64;1678006;83;28022;-88
2021/06/21 07:39:12;;;;;;;7.33;5.60;;;;;;;26.82;62.47;97486.55;1686277;83;28101;-87
2021/06/21 07:41:39;;;;;;;6.83;6.05;;;;;;;26.93;62.34;97489.80;1683471;83;28043;-88
2021/06/21 07:44:06;;;;;;;7.22;6.25;;;;;;;27.03;62.19;97490.55;1684191;84;28168;-88
2021/06/21 07:46:32;;;;;;;6.17;5.50;;;;;;;27.10;61.99;97485.87;1686172;84;28098;-87
2021/06/21 07:49:08;;;;;;;11.50;6.35;;;;;;;27.15;61.77;97491.36;1692208;83;28113;-87
2021/06/21 07:51:34;;;;;;;7.95;5.58;;;;;;;27.23;61.65;97491.50;1687581;83;28189;-87
2021/06/21 07:54:08;;;;;;;7.45;6.15;;;;;;;27.35;61.59;97493.13;1684258;84;28070;-88
2021/06/21 07:56:34;;;;;;;10.28;6.78;;;;;;;27.44;61.41;97484.16;1681846;83;28075;-88
2021/06/21 07:59:01;;;;;;;7.75;6.12;;;;;;;27.52;61.20;97480.33;1687809;83;28034;-87
2021/06/21 08:01:28;;;;;;;6.28;5.67;;;;;;;27.60;61.03;97484.00;1691976;83;28051;-88
2021/06/21 08:03:56;;;;;;;5.92;5.42;;;;;;;27.68;60.87;97489.80;1687912;83;28061;-87
2021/06/21 08:06:32;;;;;;;5.97;5.37;;;;;;;27.77;60.77;97482.98;1653068;84;28152;-88
2021/06/21 08:08:59;;;;;;;6.10;5.50;;;;;;;27.84;60.56;97484.19;1666943;84;28133;-88
2021/06/21 08:11:31;;;;;;;5.92;5.30;;;;;;;27.93;60.36;97480.05;1683787;83;28003;-87
2021/06/21 08:13:57;;;;;;;6.62;5.70;;;;;;;28.00;60.10;97474.53;1682676;83;28134;-87
2021/06/21 08:16:26;;;;;;;7.87;5.55;;;;;;;28.06;59.81;97475.73;1685158;83;28193;-88
2021/06/21 08:18:58;;;;;;;5.42;4.87;;;;;;;28.15;59.63;97468.10;1680792;84;28040;-88
2021/06/21 08:21:25;;;;;;;8.63;6.20;;;;;;;28.22;59.46;97471.47;1680771;83;28180;-87
2021/06/21 08:23:52;;;;;;;5.70;5.20;;;;;;;28.26;59.23;97471.26;1676677;84;28083;-88
2021/06/21 08:26:20;;;;;;;6.05;5.47;;;;;;;28.34;59.05;97476.26;1688438;83;28078;-87
2021/06/21 08:28:52;;;;;;;6.75;5.42;;;;;;;28.40;58.89;97473.94;1685192;83;28120;-87
2021/06/21 08:31:20;;;;;;;6.33;5.35;;;;;;;28.52;58.69;97468.48;1690226;84;28078;-88
2021/06/21 08:33:47;;;;;;;6.28;5.25;;;;;;;28.61;58.46;97468.34;1689340;84;28146;-88
2021/06/21 08:36:13;;;;;;;5.80;5.20;;;;;;;28.69;58.22;97469.30;1682931;84;28042;-88
2021/06/21 08:38:47;;;;;;;7.30;5.30;;;;;;;28.79;58.00;97465.97;1684472;84;28183;-88
2021/06/21 08:41:13;;;;;;;9.68;5.15;;;;;;;28.82;57.67;97463.59;1678542;84;28116;-87
2021/06/21 08:43:44;;;;;;;6.15;5.55;;;;;;;28.84;57.30;97456.62;1691127;83;28087;-87
2021/06/21 08:46:10;;;;;;;6.08;4.80;;;;;;;28.89;57.03;97459.38;1685528;83;28085;-87
2021/06/21 08:48:46;;;;;;;8.33;5.03;;;;;;;28.91;56.63;97458.05;1684317;84;28053;-88
2021/06/21 08:51:15;;;;;;;7.50;4.72;;;;;;;29.03;56.50;97461.99;1684465;84;28066;-88
2021/06/21 08:53:42;;;;;;;6.40;5.60;;;;;;;29.13;56.10;97464.30;1676652;83;28069;-88
2021/06/21 08:56:10;;;;;;;5.15;4.65;;;;;;;29.22;55.92;97457.96;1680856;84;28092;-88
2021/06/21 08:58:36;;;;;;;5.00;4.42;;;;;;;29.32;55.54;97459.47;1676467;83;28148;-88
2021/06/21 09:01:03;;;;;;;7.40;5.20;;;;;;;29.41;55.02;97453.91;1678630;84;28099;-88
2021/06/21 09:03:32;;;;;;;5.60;4.87;;;;;;;29.40;54.56;97457.66;1677509;84;28134;-88
2021/06/21 09:05:59;;;;;;;8.25;5.05;;;;;;;29.42;54.31;97452.85;1684859;82;28087;-88
2021/06/21 09:08:25;;;;;;;5.42;4.92;;;;;;;29.48;54.01;97450.50;1684292;82;28079;-88
2021/06/21 09:10:52;;;;;;;4.72;4.33;;;;;;;29.47;53.61;97447.52;1676655;84;28012;-88
2021/06/21 09:13:21;;;;;;;7.25;5.10;;;;;;;29.47;53.35;97450.74;1677879;82;28162;-88
2021/06/21 09:15:52;;;;;;;6.45;4.60;;;;;;;29.55;53.29;97444.10;1679437;83;28063;-88
2021/06/21 09:18:28;;;;;;;7.35;5.20;;;;;;;29.61;53.01;97447.14;1678155;82;28095;-88
2021/06/21 09:21:21;;;;;;;7.45;5.05;;;;;;;29.74;52.84;97446.73;1683740;82;28115;-88
2021/06/21 09:23:50;;;;;;;6.35;5.03;;;;;;;29.86;52.56;97444.18;1682659;84;28060;-88
2021/06/21 09:26:19;;;;;;;7.92;5.10;;;;;;;29.92;52.04;97445.08;1684127;84;28189;-88
2021/06/21 09:28:47;;;;;;;6.95;5.35;;;;;;;29.92;51.62;97439.69;1680004;83;28153;-88
2021/06/21 09:31:14;;;;;;;7.90;5.20;;;;;;;29.92;51.37;97436.45;1671139;84;28019;-88
2021/06/21 09:33:41;;;;;;;6.20;5.47;;;;;;;29.95;51.14;97435.11;1677922;84;28095;-88
2021/06/21 09:36:08;;;;;;;5.80;4.35;;;;;;;30.03;51.15;97435.20;1685168;84;28092;-88
2021/06/21 09:38:38;;;;;;;7.92;5.25;;;;;;;30.12;51.00;97437.70;1683146;83;28060;-88
2021/06/21 09:41:05;;;;;;;11.78;5.37;;;;;;;30.10;50.80;97436.63;1674068;84;28076;-88
2021/06/21 09:43:36;;;;;;;7.03;4.90;;;;;;;30.10;50.38;97429.06;1681497;84;28016;-88
2021/06/21 09:46:19;;;;;;;5.50;4.70;;;;;;;30.16;50.33;97433.44;1681258;84;28082;-88
2021/06/21 09:48:55;;;;;;;6.08;4.78;;;;;;;30.23;50.07;97434.84;1680047;83;28078;-88
2021/06/21 09:51:32;;;;;;;7.12;4.80;;;;;;;30.12;49.46;97434.47;1675313;84;28065;-88
2021/06/21 09:54:14;;;;;;;7.17;4.97;;;;;;;29.99;49.21;97429.51;1675713;84;28092;-88
2021/06/21 09:56:44;;;;;;;5.33;4.83;;;;;;;29.97;49.18;97426.77;1684304;84;28129;-88
2021/06/21 09:59:24;;;;;;;7.37;5.03;;;;;;;29.97;48.98;97429.47;1685110;84;28121;-89
2021/06/21 10:02:14;;;;;;;4.97;4.58;;;;;;;30.04;48.95;97422.80;1666361;84;28101;-87
2021/06/21 10:04:42;;;;;;;5.28;4.78;;;;;;;29.98;48.48;97418.43;1681704;83;28060;-87
2021/06/21 10:07:35;;;;;;;4.40;4.00;;;;;;;29.95;48.41;97416.79;1677681;84;28070;-88
2021/06/21 10:10:08;;;;;;;;;;;;;;;29.96;48.18;97421.09;1678896;84;28111;-87
2021/06/21 10:12:40;;;;;;;5.00;4.50;;;;;;;30.03;48.02;97423.05;1689413;84;21995;-88
2021/06/21 10:15:09;;;;;;;4.50;4.10;;;;;;;30.05;47.91;97423.63;1681878;83;28170;-88
2021/06/21 10:17:37;;;;;;;7.97;5.20;;;;;;;30.00;47.75;97415.48;1674455;84;28205;-88
2021/06/21 10:20:07;;;;;;;5.60;4.85;;;;;;;29.88;47.57;97415.61;1677253;84;28184;-89
2021/06/21 10:22:35;;;;;;;5.35;4.85;;;;;;;29.84;47.61;97411.80;1679970;84;28187;-90
2021/06/21 10:25:01;;;;;;;5.55;5.05;;;;;;;29.92;47.87;97412.17;1673175;84;28138;-90
2021/06/21 10:27:34;;;;;;;4.78;4.37;;;;;;;29.98;47.67;97417.61;1678383;84;28116;-89
2021/06/21 10:29:58;;;;;;;5.62;4.60;;;;;;;30.06;47.57;97411.20;1678957;84;28166;-89
2021/06/21 10:32:28;;;;;;;6.12;5.08;;;;;;;30.15;47.57;97406.98;1683546;83;28101;-89
2021/06/21 10:34:54;;;;;;;5.83;5.25;;;;;;;30.22;47.60;97402.73;1676322;83;28173;-88
2021/06/21 10:37:24;;;;;;;6.60;4.78;;;;;;;30.29;47.57;97410.05;1675997;84;28130;-88
2021/06/21 10:39:57;;;;;;;6.25;4.70;;;;;;;30.27;47.32;97407.63;1663471;84;28104;-90
2021/06/21 10:42:28;;;;;;;5.72;5.17;;;;;;;30.18;47.07;97396.19;1654630;84;28027;-89
2021/06/21 10:44:58;;;;;;;5.53;5.00;;;;;;;30.19;47.09;97398.64;1659586;84;28034;-89
2021/06/21 10:47:41;;;;;;;5.45;4.90;;;;;;;30.27;47.12;97395.48;1660159;83;28082;-89
2021/06/21 10:50:11;;;;;;;5.67;4.65;;;;;;;30.38;46.88;97395.56;1664715;84;28275;-89
2021/06/21 10:52:52;;;;;;;5.03;4.20;;;;;;;30.47;46.87;97388.09;1661005;84;28096;-89
2021/06/21 10:55:26;;;;;;;5.35;4.50;;;;;;;30.61;46.85;97388.44;1657878;84;28152;-89
2021/06/21 10:58:08;;;;;;;5.37;4.67;;;;;;;30.67;46.88;97389.56;1651289;84;28098;-89
2021/06/21 11:00:49;;;;;;;7.60;4.70;;;;;;;30.67;46.70;97378.77;1662561;84;28071;-89
2021/06/21 11:03:34;;;;;;;6.60;4.42;;;;;;;30.69;46.34;97372.58;1653199;84;28565;-89
2021/06/21 11:06:06;;;;;;;5.08;4.30;;;;;;;30.72;46.19;97374.73;1654927;84;28055;-89
2021/06/21 11:08:50;;;;;;;4.87;4.42;;;;;;;30.70;45.99;97372.03;1659961;84;28088;-89
2021/06/21 11:11:35;;;;;;;5.58;4.50;;;;;;;30.68;45.71;97376.34;1659047;83;28056;-89
2021/06/21 11:14:22;;;;;;;5.90;4.45;;;;;;;30.62;45.31;97375.22;1623954;85;28081;-89
2021/06/21 11:16:51;;;;;;;6.55;4.67;;;;;;;30.44;45.08;97368.31;1649455;85;28512;-89
2021/06/21 11:19:26;;;;;;;5.25;4.78;;;;;;;30.30;45.17;97370.66;1654672;85;28089;-89
2021/06/21 11:21:56;;;;;;;6.33;4.37;;;;;;;30.25;45.17;97365.75;1656515;85;28037;-89
2021/06/21 11:24:49;;;;;;;10.00;5.20;;;;;;;30.33;45.17;97366.64;1648023;85;28011;-89
2021/06/21 11:27:26;;;;;;;5.67;4.55;;;;;;;30.42;45.03;97365.08;1655829;84;28159;-89
2021/06/21 11:30:01;;;;;;;5.40;4.62;;;;;;;30.52;45.08;97359.77;1652417;84;28123;-89
2021/06/21 11:32:31;;;;;;;7.50;5.25;;;;;;;30.62;45.08;97360.36;1657486;84;28158;-89
2021/06/21 11:35:02;;;;;;;;;;;;;;;30.69;45.04;97359.59;1660498;84;28070;-89
2021/06/21 11:37:41;;;;;;;4.92;4.37;;;;;;;30.72;44.84;97359.06;1628052;84;20331;-89
2021/06/21 11:40:23;;;;;;;6.15;4.42;;;;;;;30.69;44.58;97359.59;1677611;84;28140;-89
2021/06/21 11:43:08;;;;;;;6.55;4.62;;;;;;;30.68;44.43;97364.72;1680881;84;28110;-89
2021/06/21 11:45:59;;;;;;;7.15;5.00;;;;;;;30.66;44.20;97364.16;1680446;84;28088;-89
2021/06/21 11:48:38;;;;;;;6.42;4.65;;;;;;;30.71;44.17;97356.89;1683828;84;28128;-89
2021/06/21 11:51:17;;;;;;;5.75;4.53;;;;;;;30.79;44.08;97362.35;1688246;84;28144;-89
2021/06/21 11:53:46;;;;;;;6.00;4.90;;;;;;;30.81;43.95;97360.75;1679948;84;28083;-89
2021/06/21 11:56:17;;;;;;;6.25;4.40;;;;;;;30.85;43.89;97351.03;1680945;83;28092;-89
2021/06/21 11:58:55;;;;;;;7.08;4.62;;;;;;;30.93;43.91;97345.92;1679749;83;28181;-90
2021/06/21 12:01:26;;;;;;;4.97;4.40;;;;;;;31.05;43.98;97344.39;1678157;84;27997;-90
2021/06/21 12:04:01;;;;;;;4.67;4.28;;;;;;;31.12;43.89;97343.61;1682982;83;28072;-89
2021/06/21 12:06:31;;;;;;;5.30;4.85;;;;;;;31.13;43.77;97341.19;1685655;82;28100;-88
2021/06/21 12:08:58;;;;;;;5.22;4.62;;;;;;;31.22;43.72;97335.53;1676209;84;28168;-88